createdAt,value
2023-02-22T00:01:08.420Z,47.47
2023-02-22T00:03:36.718Z,47.17
2023-02-22T00:06:06.467Z,47.37
2023-02-22T00:08:36.526Z,47.45
2023-02-22T00:11:10.795Z,47.41
2023-02-22T00:13:39.401Z,47.45
2023-02-22T00:16:08.427Z,47.14
2023-02-22T00:18:37.971Z,47.06
2023-02-22T00:21:10.819Z,47.00
2023-02-22T00:23:43.826Z,47.24
2023-02-22T00:26:18.546Z,47.05
2023-02-22T00:28:54.793Z,47.14
2023-02-22T00:31:25.851Z,47.17
2023-02-22T00:33:54.064Z,47.03
2023-02-22T00:36:22.696Z,46.74
2023-02-22T00:38:50.898Z,46.71
2023-02-22T00:41:19.733Z,46.74
2023-02-22T00:43:49.335Z,46.72
2023-02-22T00:46:17.946Z,47.11
2023-02-22T00:48:47.280Z,46.85
2023-02-22T00:51:16.098Z,47.04
2023-02-22T00:53:45.690Z,46.82
2023-02-22T00:56:14.213Z,46.93
2023-02-22T00:58:42.466Z,46.64
2023-02-22T01:01:11.113Z,46.69
2023-02-22T01:03:41.460Z,46.69
2023-02-22T01:06:10.185Z,46.79
2023-02-22T01:08:38.462Z,46.57
2023-02-22T01:11:07.049Z,46.77
2023-02-22T01:13:35.739Z,46.66
2023-02-22T01:16:08.063Z,46.85
2023-02-22T01:18:37.061Z,46.51
2023-02-22T01:21:06.841Z,46.82
2023-02-22T01:23:37.130Z,46.64
2023-02-22T01:26:06.255Z,46.66
2023-02-22T01:28:34.922Z,46.85
2023-02-22T01:31:04.219Z,46.59
2023-02-22T01:33:34.282Z,46.76
2023-02-22T01:36:03.946Z,46.54
2023-02-22T01:38:32.134Z,46.74
2023-02-22T01:41:01.870Z,46.63
2023-02-22T01:43:32.755Z,46.63
2023-02-22T01:46:06.543Z,46.70
2023-02-22T01:48:34.749Z,47.25
2023-02-22T01:51:14.412Z,46.84
2023-02-22T01:54:00.015Z,46.71
2023-02-22T01:56:30.740Z,46.42
2023-02-22T01:59:03.713Z,46.71
2023-02-22T02:01:33.075Z,46.79
2023-02-22T02:04:05.705Z,46.77
2023-02-22T02:06:35.704Z,46.69
2023-02-22T02:09:54.196Z,46.59
2023-02-22T02:12:23.658Z,46.71
2023-02-22T02:14:52.827Z,47.14
2023-02-22T02:17:23.466Z,46.63
2023-02-22T02:20:01.318Z,46.75
2023-02-22T02:22:49.213Z,46.68
2023-02-22T02:25:41.938Z,46.87
2023-02-22T02:28:13.430Z,48.09
2023-02-22T02:30:41.648Z,47.40
2023-02-22T02:33:26.469Z,46.70
2023-02-22T02:36:06.564Z,46.78
2023-02-22T02:38:42.966Z,47.76
2023-02-22T02:41:17.384Z,46.71
2023-02-22T02:43:58.198Z,46.90
2023-02-22T02:46:32.433Z,46.84
2023-02-22T02:49:08.218Z,46.81
2023-02-22T02:51:43.389Z,46.82
2023-02-22T02:54:13.929Z,47.15
2023-02-22T02:56:44.071Z,47.08
2023-02-22T02:59:34.111Z,46.99
2023-02-22T03:02:20.634Z,47.42
2023-02-22T03:05:00.367Z,46.94
2023-02-22T03:07:36.168Z,48.34
2023-02-22T03:10:26.533Z,46.89
2023-02-22T03:12:59.084Z,47.28
2023-02-22T03:15:37.332Z,47.08
2023-02-22T03:18:39.712Z,47.41
2023-02-22T03:21:17.525Z,47.15
2023-02-22T03:24:10.966Z,47.21
2023-02-22T03:26:47.105Z,47.42
2023-02-22T03:29:18.654Z,47.10
2023-02-22T03:31:52.751Z,47.10
2023-02-22T03:34:30.243Z,47.23
2023-02-22T03:37:09.576Z,46.77
2023-02-22T03:39:39.322Z,48.00
2023-02-22T03:42:15.903Z,47.60
2023-02-22T03:44:46.104Z,48.02
2023-02-22T03:47:23.553Z,47.77
2023-02-22T03:49:58.929Z,47.92
2023-02-22T03:52:27.554Z,47.25
2023-02-22T03:54:55.973Z,47.09
2023-02-22T03:57:29.174Z,47.59
2023-02-22T04:00:08.174Z,47.54
2023-02-22T04:02:42.663Z,48.12
2023-02-22T04:05:16.344Z,48.00
2023-02-22T04:07:45.374Z,48.01
2023-02-22T04:10:16.573Z,47.53
2023-02-22T04:12:45.807Z,47.63
2023-02-22T04:15:18.325Z,47.47
2023-02-22T04:17:47.552Z,47.27
2023-02-22T04:20:20.091Z,47.82
2023-02-22T04:23:01.679Z,47.81
2023-02-22T04:25:31.161Z,47.86
2023-02-22T04:28:04.513Z,47.79
2023-02-22T04:30:40.014Z,47.84
2023-02-22T04:33:13.821Z,47.79
2023-02-22T04:35:42.489Z,47.10
2023-02-22T04:38:11.998Z,47.24
2023-02-22T04:40:41.905Z,47.29
2023-02-22T04:43:10.802Z,46.57
2023-02-22T04:45:41.352Z,46.85
2023-02-22T04:48:11.023Z,46.56
2023-02-22T04:50:39.698Z,46.56
2023-02-22T04:53:08.317Z,46.53
2023-02-22T04:55:39.270Z,46.33
2023-02-22T04:58:09.501Z,45.82
2023-02-22T05:00:39.071Z,45.56
2023-02-22T05:03:09.064Z,45.57
2023-02-22T05:05:37.421Z,45.43
2023-02-22T05:08:06.030Z,45.28
2023-02-22T05:10:34.191Z,45.46
2023-02-22T05:13:04.104Z,45.19
2023-02-22T05:15:32.841Z,45.43
2023-02-22T05:18:01.466Z,45.20
2023-02-22T05:20:34.838Z,45.28
2023-02-22T05:23:04.127Z,45.45
2023-02-22T05:25:33.521Z,45.37
2023-02-22T05:28:05.550Z,45.62
2023-02-22T05:30:36.566Z,45.45
2023-02-22T05:33:05.240Z,45.82
2023-02-22T05:35:33.476Z,45.66
2023-02-22T05:38:04.051Z,45.57
2023-02-22T05:40:33.095Z,45.45
2023-02-22T05:43:03.000Z,45.62
2023-02-22T05:45:31.338Z,45.67
2023-02-22T05:47:59.865Z,45.62
2023-02-22T05:50:28.281Z,45.68
2023-02-22T05:52:56.917Z,45.88
2023-02-22T05:55:25.764Z,45.50
2023-02-22T05:57:54.615Z,46.00
2023-02-22T06:00:30.670Z,46.01
2023-02-22T06:03:05.040Z,45.67
2023-02-22T06:05:33.394Z,46.01
2023-02-22T06:08:03.981Z,45.79
2023-02-22T06:10:35.014Z,45.83
2023-02-22T06:13:05.902Z,45.81
2023-02-22T06:15:34.353Z,45.74
2023-02-22T06:18:02.930Z,45.65
2023-02-22T06:20:31.560Z,45.87
2023-02-22T06:23:00.226Z,46.07
2023-02-22T06:25:33.677Z,46.09
2023-02-22T06:28:02.735Z,46.45
2023-02-22T06:30:31.627Z,46.07
2023-02-22T06:33:00.167Z,46.13
2023-02-22T06:35:28.334Z,46.14
2023-02-22T06:37:56.825Z,46.10
2023-02-22T06:40:29.669Z,46.23
2023-02-22T06:42:58.904Z,46.18
2023-02-22T06:45:27.439Z,46.24
2023-02-22T06:47:55.934Z,46.51
2023-02-22T06:50:28.956Z,46.35
2023-02-22T06:52:58.239Z,46.83
2023-02-22T06:55:28.584Z,46.76
2023-02-22T06:57:57.052Z,46.81
2023-02-22T07:00:27.195Z,46.78
2023-02-22T07:02:56.337Z,46.60
2023-02-22T07:05:25.614Z,46.87
2023-02-22T07:07:56.805Z,46.89
2023-02-22T07:10:28.608Z,47.01
2023-02-22T07:12:57.458Z,46.76
2023-02-22T07:15:28.191Z,46.72
2023-02-22T07:17:57.355Z,46.94
2023-02-22T07:20:27.859Z,47.16
2023-02-22T07:22:56.478Z,47.05
2023-02-22T07:25:25.650Z,47.11
2023-02-22T07:27:54.540Z,47.18
2023-02-22T07:30:31.376Z,47.22
2023-02-22T07:33:01.979Z,47.37
2023-02-22T07:35:39.327Z,47.08
2023-02-22T07:38:08.716Z,46.94
2023-02-22T07:40:38.181Z,47.34
2023-02-22T07:43:24.257Z,47.24
2023-02-22T07:45:56.331Z,47.19
2023-02-22T07:48:26.870Z,47.34
2023-02-22T07:50:55.431Z,47.32
2023-02-22T07:53:30.484Z,46.98
2023-02-22T07:56:00.470Z,47.47
2023-02-22T07:58:30.384Z,47.47
2023-02-22T08:01:02.379Z,47.50
2023-02-22T08:03:36.957Z,47.54
2023-02-22T08:06:07.536Z,47.33
2023-02-22T08:08:35.753Z,47.45
2023-02-22T08:11:05.263Z,47.58
2023-02-22T08:13:33.520Z,47.29
2023-02-22T08:16:03.717Z,47.54
2023-02-22T08:18:31.948Z,48.12
2023-02-22T08:21:00.746Z,47.53
2023-02-22T08:23:28.981Z,47.45
2023-02-22T08:25:57.993Z,47.36
2023-02-22T08:28:26.462Z,47.84
2023-02-22T08:30:55.083Z,47.70
2023-02-22T08:33:23.724Z,47.46
2023-02-22T08:35:52.613Z,47.64
2023-02-22T08:38:34.187Z,47.46
2023-02-22T08:41:02.710Z,47.33
2023-02-22T08:43:30.894Z,48.23
2023-02-22T08:45:59.438Z,47.55
2023-02-22T08:48:27.740Z,47.77
2023-02-22T08:50:56.450Z,47.28
2023-02-22T08:53:24.721Z,48.69
2023-02-22T08:55:53.825Z,47.58
2023-02-22T08:58:22.148Z,48.03
2023-02-22T09:00:51.136Z,47.79
2023-02-22T09:03:19.490Z,47.87
2023-02-22T09:05:48.089Z,47.73
2023-02-22T09:08:17.595Z,47.55
2023-02-22T09:10:46.209Z,47.35
2023-02-22T09:13:14.408Z,48.21
2023-02-22T09:15:43.337Z,47.57
2023-02-22T09:18:14.809Z,47.22
2023-02-22T09:20:43.585Z,47.92
2023-02-22T09:23:12.699Z,47.29
2023-02-22T09:25:41.740Z,47.29
2023-02-22T09:28:10.177Z,47.93
2023-02-22T09:30:38.829Z,47.98
2023-02-22T09:33:13.382Z,47.83
2023-02-22T09:35:46.646Z,48.11
2023-02-22T09:38:19.913Z,48.62
2023-02-22T09:40:55.182Z,47.68
2023-02-22T09:43:26.376Z,47.80
2023-02-22T09:46:19.906Z,47.70
2023-02-22T09:48:54.410Z,47.03
2023-02-22T09:51:27.613Z,47.41
2023-02-22T09:53:59.710Z,47.50
2023-02-22T09:56:30.047Z,46.91
2023-02-22T09:59:03.923Z,47.15
2023-02-22T10:01:42.856Z,46.51
2023-02-22T10:04:36.524Z,46.65
2023-02-22T10:07:12.914Z,46.45
2023-02-22T10:09:42.931Z,46.61
2023-02-22T10:12:23.423Z,46.52
2023-02-22T10:15:41.328Z,46.39
2023-02-22T10:18:48.154Z,46.51
2023-02-22T10:21:40.544Z,46.38
2023-02-22T10:24:23.291Z,46.32
2023-02-22T10:26:54.364Z,46.19
2023-02-22T10:29:42.301Z,46.29
2023-02-22T10:32:25.749Z,46.02
2023-02-22T10:34:55.570Z,45.99
2023-02-22T10:37:27.369Z,46.07
2023-02-22T10:40:17.935Z,45.84
2023-02-22T10:42:47.642Z,45.30
2023-02-22T10:45:22.670Z,45.16
2023-02-22T10:47:52.824Z,44.77
2023-02-22T10:50:22.306Z,44.70
2023-02-22T10:52:50.611Z,44.53
2023-02-22T10:55:19.880Z,44.06
2023-02-22T10:57:51.741Z,44.10
2023-02-22T11:00:37.719Z,43.49
2023-02-22T11:03:21.093Z,43.41
2023-02-22T11:05:51.016Z,43.64
2023-02-22T11:08:22.139Z,43.29
2023-02-22T11:10:53.189Z,43.47
2023-02-22T11:13:31.919Z,43.51
2023-02-22T11:16:18.415Z,43.53
2023-02-22T11:18:47.949Z,43.47
2023-02-22T11:21:23.146Z,43.47
2023-02-22T11:24:05.659Z,43.61
2023-02-22T11:26:50.311Z,43.66
2023-02-22T11:29:28.408Z,43.59
2023-02-22T11:31:57.084Z,43.83
2023-02-22T11:34:45.478Z,43.64
2023-02-22T11:37:33.161Z,43.79
2023-02-22T11:40:22.934Z,43.83
2023-02-22T11:43:16.568Z,43.90
2023-02-22T11:46:02.248Z,43.82
2023-02-22T11:48:39.258Z,44.08
2023-02-22T11:51:29.346Z,43.73
2023-02-22T11:54:34.845Z,43.99
2023-02-22T11:57:22.485Z,44.18
2023-02-22T12:00:08.528Z,44.00
2023-02-22T12:02:41.629Z,44.18
2023-02-22T12:05:20.989Z,44.58
2023-02-22T12:08:10.701Z,44.73
2023-02-22T12:10:55.541Z,45.21
2023-02-22T12:13:45.657Z,45.14
2023-02-22T12:16:20.929Z,45.24
2023-02-22T12:19:08.595Z,45.92
2023-02-22T12:21:41.511Z,45.78
2023-02-22T12:24:17.354Z,45.62
2023-02-22T12:26:54.463Z,45.73
2023-02-22T12:29:40.008Z,46.54
2023-02-22T12:32:21.321Z,46.12
2023-02-22T12:34:54.619Z,46.65
2023-02-22T12:37:35.769Z,46.28
2023-02-22T12:40:13.722Z,46.21
2023-02-22T12:43:01.269Z,46.52
2023-02-22T12:45:35.614Z,46.39
2023-02-22T12:48:21.990Z,46.57
2023-02-22T12:50:56.443Z,46.80
2023-02-22T12:53:37.295Z,46.90
2023-02-22T12:56:23.619Z,46.71
2023-02-22T12:59:08.637Z,46.99
2023-02-22T13:01:41.717Z,46.64
2023-02-22T13:04:20.464Z,46.89
2023-02-22T13:06:56.273Z,46.96
2023-02-22T13:09:39.110Z,47.04
2023-02-22T13:12:07.553Z,46.75
2023-02-22T13:14:39.500Z,46.83
2023-02-22T13:17:21.809Z,46.90
2023-02-22T13:19:53.411Z,47.27
2023-02-22T13:22:41.048Z,46.97
2023-02-22T13:25:34.316Z,47.00
2023-02-22T13:28:07.415Z,47.40
2023-02-22T13:30:50.994Z,47.30
2023-02-22T13:33:42.015Z,47.40
2023-02-22T13:36:25.763Z,47.49
2023-02-22T13:39:16.726Z,47.20
2023-02-22T13:41:48.685Z,47.28
2023-02-22T13:44:22.342Z,47.35
2023-02-22T13:47:01.105Z,47.44
2023-02-22T13:50:06.625Z,47.65
2023-02-22T13:52:39.123Z,47.30
2023-02-22T13:55:15.759Z,47.51
2023-02-22T13:57:48.891Z,47.36
2023-02-22T14:00:21.175Z,47.29
2023-02-22T14:03:03.256Z,47.54
2023-02-22T14:05:46.861Z,47.55
2023-02-22T14:08:32.077Z,47.62
2023-02-22T14:11:23.728Z,47.54
2023-02-22T14:13:53.932Z,47.28
2023-02-22T14:16:26.822Z,47.43
2023-02-22T14:19:15.302Z,47.50
2023-02-22T14:22:03.827Z,47.48
2023-02-22T14:24:45.114Z,47.82
2023-02-22T14:27:15.274Z,47.80
2023-02-22T14:30:00.707Z,47.78
2023-02-22T14:32:34.177Z,47.72
2023-02-22T14:35:25.439Z,47.94
2023-02-22T14:37:58.627Z,47.88
2023-02-22T14:40:30.862Z,47.90
2023-02-22T14:43:04.667Z,47.85
2023-02-22T14:45:35.068Z,48.01
2023-02-22T14:48:27.868Z,48.13
2023-02-22T14:51:11.773Z,48.10
2023-02-22T14:53:50.176Z,48.15
2023-02-22T14:56:25.652Z,47.94
2023-02-22T14:59:14.181Z,47.84
2023-02-22T15:01:55.685Z,47.86
2023-02-22T15:04:31.814Z,47.96
2023-02-22T15:07:01.846Z,47.70
2023-02-22T15:09:34.698Z,47.71
2023-02-22T15:12:03.608Z,47.95
2023-02-22T15:14:38.162Z,47.85
2023-02-22T15:17:22.714Z,47.66
2023-02-22T15:19:51.881Z,47.70
2023-02-22T15:22:23.956Z,47.60
2023-02-22T15:25:08.179Z,47.61
2023-02-22T15:27:37.480Z,47.40
2023-02-22T15:30:24.237Z,47.56
2023-02-22T15:33:03.711Z,47.52
2023-02-22T15:35:33.811Z,47.34
2023-02-22T15:38:16.460Z,47.38
2023-02-22T15:40:45.921Z,47.29
2023-02-22T15:43:28.807Z,47.40
2023-02-22T15:45:59.171Z,47.38
2023-02-22T15:48:29.030Z,47.33
2023-02-22T15:51:11.101Z,47.17
2023-02-22T15:53:43.689Z,47.32
2023-02-22T15:56:18.284Z,47.34
2023-02-22T15:58:48.059Z,47.22
2023-02-22T16:01:19.492Z,47.12
2023-02-22T16:03:59.367Z,47.46
2023-02-22T16:06:37.708Z,47.23
2023-02-22T16:09:13.547Z,47.25
2023-02-22T16:11:44.401Z,47.26
2023-02-22T16:14:28.348Z,46.98
2023-02-22T16:17:25.252Z,46.66
2023-02-22T16:19:54.211Z,46.27
2023-02-22T16:22:34.085Z,46.31
2023-02-22T16:25:17.227Z,46.05
2023-02-22T16:27:48.148Z,45.57
2023-02-22T16:30:38.074Z,45.34
2023-02-22T16:33:13.927Z,45.08
2023-02-22T16:35:52.241Z,44.86
2023-02-22T16:38:21.368Z,44.87
2023-02-22T16:40:52.656Z,44.90
2023-02-22T16:43:26.615Z,44.51
2023-02-22T16:45:55.485Z,44.38
2023-02-22T16:48:25.839Z,44.15
2023-02-22T16:50:57.415Z,44.34
2023-02-22T16:53:27.201Z,44.07
2023-02-22T16:56:00.244Z,43.84
2023-02-22T16:58:28.997Z,44.14
2023-02-22T17:00:57.944Z,43.79
2023-02-22T17:03:27.036Z,43.99
2023-02-22T17:05:55.862Z,43.98
2023-02-22T17:08:24.356Z,43.98
2023-02-22T17:10:56.969Z,44.46
2023-02-22T17:13:27.463Z,44.23
2023-02-22T17:15:57.780Z,44.51
2023-02-22T17:18:29.134Z,44.40
2023-02-22T17:20:57.691Z,44.10
2023-02-22T17:23:28.029Z,44.23
2023-02-22T17:26:03.573Z,44.14
2023-02-22T17:28:32.342Z,44.69
2023-02-22T17:31:04.394Z,44.89
2023-02-22T17:33:37.650Z,44.77
2023-02-22T17:36:06.685Z,44.95
2023-02-22T17:38:35.187Z,45.10
2023-02-22T17:41:07.027Z,45.44
2023-02-22T17:43:35.375Z,45.33
2023-02-22T17:46:10.535Z,45.21
2023-02-22T17:48:40.075Z,45.38
2023-02-22T17:51:11.307Z,45.08
2023-02-22T17:53:40.200Z,45.12
2023-02-22T17:56:14.277Z,44.97
2023-02-22T17:58:43.000Z,44.78
2023-02-22T18:01:22.100Z,44.29
2023-02-22T18:03:52.346Z,44.62
2023-02-22T18:06:25.330Z,44.77
2023-02-22T18:08:56.569Z,44.55
2023-02-22T18:11:27.602Z,44.41
2023-02-22T18:13:57.494Z,44.25
2023-02-22T18:16:26.864Z,44.52
2023-02-22T18:18:56.269Z,44.65
2023-02-22T18:21:27.123Z,44.75
2023-02-22T18:23:55.517Z,44.58
2023-02-22T18:26:25.771Z,44.90
2023-02-22T18:28:54.486Z,44.74
2023-02-22T18:31:23.909Z,44.88
2023-02-22T18:33:53.124Z,44.85
2023-02-22T18:36:23.394Z,45.10
2023-02-22T18:38:53.689Z,45.10
2023-02-22T18:41:26.781Z,44.99
2023-02-22T18:43:57.855Z,45.05
2023-02-22T18:46:26.659Z,45.08
2023-02-22T18:48:56.235Z,44.91
2023-02-22T18:51:26.513Z,45.22
2023-02-22T18:54:00.835Z,45.03
2023-02-22T18:56:30.593Z,45.28
2023-02-22T18:59:03.161Z,45.34
2023-02-22T19:01:41.312Z,45.14
2023-02-22T19:04:12.879Z,45.20
2023-02-22T19:06:43.367Z,45.58
2023-02-22T19:09:11.760Z,45.35
2023-02-22T19:11:45.027Z,45.43
2023-02-22T19:14:13.982Z,45.39
2023-02-22T19:16:46.776Z,45.45
2023-02-22T19:19:21.059Z,45.85
2023-02-22T19:21:51.101Z,45.76
2023-02-22T19:24:19.577Z,45.60
2023-02-22T19:26:53.860Z,45.70
2023-02-22T19:29:25.156Z,45.70
2023-02-22T19:31:54.180Z,45.70
2023-02-22T19:34:24.773Z,45.84
2023-02-22T19:36:53.809Z,45.79
2023-02-22T19:41:52.754Z,45.91
2023-02-22T19:44:21.424Z,45.66
2023-02-22T19:46:50.286Z,45.90
2023-02-22T19:49:18.623Z,45.71
2023-02-22T19:51:47.297Z,45.55
2023-02-22T19:54:25.705Z,45.35
2023-02-22T19:56:54.968Z,45.37
2023-02-22T19:59:23.817Z,45.27
2023-02-22T20:01:54.699Z,44.86
2023-02-22T20:04:23.803Z,44.80
2023-02-22T20:06:54.903Z,45.05
2023-02-22T20:09:40.042Z,44.83
2023-02-22T20:12:08.906Z,44.58
2023-02-22T20:14:37.592Z,44.82
2023-02-22T20:17:08.027Z,44.90
2023-02-22T20:19:38.237Z,45.12
2023-02-22T20:22:08.377Z,44.89
2023-02-22T20:24:36.945Z,44.95
2023-02-22T20:27:05.726Z,45.01
2023-02-22T20:29:35.387Z,45.13
2023-02-22T20:32:06.911Z,45.05
2023-02-22T20:34:37.249Z,45.23
2023-02-22T20:37:07.251Z,45.32
2023-02-22T20:39:36.619Z,45.33
2023-02-22T20:42:08.070Z,45.52
2023-02-22T20:44:37.984Z,45.90
2023-02-22T20:47:08.355Z,45.80
2023-02-22T20:49:37.464Z,46.06
2023-02-22T20:52:08.135Z,46.50
2023-02-22T20:54:39.366Z,46.58
2023-02-22T20:57:08.304Z,46.36
2023-02-22T20:59:37.790Z,46.65
2023-02-22T21:02:08.104Z,46.97
2023-02-22T21:04:39.104Z,47.07
2023-02-22T21:07:09.134Z,47.25
2023-02-22T21:09:39.607Z,47.28
2023-02-22T21:12:14.108Z,47.11
2023-02-22T21:14:44.456Z,47.43
2023-02-22T21:17:13.030Z,47.23
2023-02-22T21:20:12.800Z,47.39
2023-02-22T21:22:42.655Z,47.29
2023-02-22T21:25:10.940Z,47.53
2023-02-22T21:27:42.285Z,47.43
2023-02-22T21:30:11.106Z,47.89
2023-02-22T21:32:40.036Z,47.76
2023-02-22T21:35:08.763Z,47.83
2023-02-22T21:37:37.286Z,47.93
2023-02-22T21:40:11.748Z,47.77
2023-02-22T21:42:40.406Z,47.75
2023-02-22T21:45:09.127Z,47.67
2023-02-22T21:47:37.676Z,47.69
2023-02-22T21:50:07.923Z,48.08
2023-02-22T21:52:37.739Z,47.46
2023-02-22T21:55:06.493Z,47.92
2023-02-22T21:57:35.501Z,47.66
2023-02-22T22:00:13.056Z,47.75
2023-02-22T22:02:41.629Z,47.60
2023-02-22T22:05:10.193Z,48.00
2023-02-22T22:07:38.779Z,47.96
2023-02-22T22:10:07.597Z,47.78
2023-02-22T22:12:40.197Z,47.70
2023-02-22T22:15:09.518Z,47.50
2023-02-22T22:17:38.285Z,47.59
2023-02-22T22:20:10.487Z,47.48
2023-02-22T22:22:41.696Z,47.61
2023-02-22T22:25:13.665Z,47.48
2023-02-22T22:27:42.273Z,47.39
2023-02-22T22:30:16.710Z,47.63
2023-02-22T22:32:45.643Z,47.61
2023-02-22T22:35:16.773Z,47.38
2023-02-22T22:37:51.531Z,47.40
2023-02-22T22:40:20.079Z,47.38
2023-02-22T22:42:49.341Z,47.62
2023-02-22T22:45:18.501Z,47.46
2023-02-22T22:47:47.022Z,47.36
2023-02-22T22:50:18.961Z,47.45
2023-02-22T22:52:49.390Z,47.42
2023-02-22T22:55:19.346Z,47.44
2023-02-22T22:57:47.804Z,47.54
2023-02-22T23:00:42.384Z,47.40
2023-02-22T23:03:16.879Z,47.40
2023-02-22T23:05:46.440Z,47.42
2023-02-22T23:08:15.862Z,47.62
2023-02-22T23:10:44.320Z,47.55
2023-02-22T23:13:15.944Z,47.46
2023-02-22T23:15:47.894Z,47.42
2023-02-22T23:18:20.896Z,47.35
2023-02-22T23:20:55.314Z,47.30
2023-02-22T23:23:27.890Z,47.40
2023-02-22T23:26:18.171Z,47.41
2023-02-22T23:28:48.535Z,47.43
2023-02-22T23:31:18.349Z,47.45
2023-02-22T23:33:50.572Z,47.39
2023-02-22T23:36:19.637Z,47.45
2023-02-22T23:38:49.053Z,47.28
2023-02-22T23:41:17.516Z,47.22
2023-02-22T23:43:46.466Z,47.38
2023-02-22T23:46:19.057Z,47.38
2023-02-22T23:48:53.115Z,47.26
2023-02-22T23:51:26.382Z,47.45
2023-02-22T23:53:56.488Z,47.25
2023-02-22T23:56:27.347Z,47.18
2023-02-22T23:58:57.683Z,47.19
